Aérodrome :
LOGIN :

S'inscrire | Disclaimer

   EN    FR    IT 

 










Légende :    VFR   VFR Marginal   IFR   IFR Intensif   IFR Très Intensif
Visi : 
Plafond : 
>= 8 km
>= 3000ft
5 à 8 km
1000 à 3000 ft
1500m à 5 km
500 à 1000 ft
800 à 1500m
200 à 500 ft
< 800m
< 200 ft
Symboles :   Orages  Brouillard  Fortes neiges  Fortes précipitations  Vent > 20 kt
SIGMETs :   Divers  Orages  Givrage  Turbulence  Onde Orograph.  Cendres Volcan.






- Altitude de l'aérodrome : 117 ft
- Code IATA : NWI


EGSH - Norwich

DERNIER METAR :
  • 150150Z AUTO 22014KT 9999 FEW032/// 07/05 Q0984 RERA

METARs EXPIRÉS :
  • 150120Z AUTO 22015KT 9999 -RA FEW004/// SCT020/// BKN031/// 07/05 Q0985 RERA
  • 150050Z AUTO 21017G27KT 9999 RA FEW005/// BKN031/// BKN037/// 07/05 Q0985 TEMPO RA
  • 150020Z AUTO 20017KT 160V230 9999 -RA FEW017/// 08/05 Q0985 TEMPO RA
  • 142350Z AUTO 19016KT 9999 SCT033/// BKN039/// 07/05 Q0985 TEMPO RA
  • 142320Z AUTO 18014KT 9999 FEW028/// BKN034/// OVC041/// 07/05 Q0986 TEMPO SHRA

Prévision TAF périmée.
ATIS : +44 1603 420 640



MET'MAP, la Météo Aéronautique d'un coup d'oeil ! - Copyright ORBIFLY Décembre 2007 - Disclaimer

ORBIFLY MET'MAP TEAM :

Programmation & Développement : Alexandra Zaïnal
Sur une idée originale de : Baudouin d'Aumeries
Assistance à la programmation : Marc-Olivier Méhu
Soutien technique & logistique : Manuel Goepfert

Contact : metmap@orbifly.com




SOURCES & CREDITS :

   NOAA